createdAt,value
2023-04-07T00:03:45.607Z,6.00
2023-04-07T00:05:49.326Z,7.70
2023-04-07T00:08:08.049Z,6.90
2023-04-07T00:10:17.250Z,4.90
2023-04-07T00:12:23.319Z,8.10
2023-04-07T00:14:28.447Z,6.80
2023-04-07T00:17:15.961Z,7.30
2023-04-07T00:20:01.860Z,5.10
2023-04-07T00:22:02.297Z,9.90
2023-04-07T00:24:06.711Z,7.00
2023-04-07T00:26:16.271Z,7.50
2023-04-07T00:28:51.763Z,5.30
2023-04-07T00:31:01.762Z,8.10
2023-04-07T00:33:21.452Z,7.10
2023-04-07T00:36:04.969Z,7.20
2023-04-07T00:39:01.195Z,9.50
2023-04-07T00:41:11.048Z,6.50
2023-04-07T00:43:16.017Z,5.20
2023-04-07T00:45:19.400Z,7.10
2023-04-07T00:47:26.418Z,7.10
2023-04-07T00:49:31.525Z,5.30
2023-04-07T00:51:35.851Z,7.20
2023-04-07T00:53:38.851Z,7.50
2023-04-07T00:55:44.666Z,7.20
2023-04-07T00:57:47.465Z,6.90
2023-04-07T00:59:50.757Z,6.90
2023-04-07T01:01:57.386Z,6.90
2023-04-07T01:04:04.134Z,6.90
2023-04-07T01:06:08.470Z,6.90
2023-04-07T01:08:14.480Z,6.90
2023-04-07T01:10:22.017Z,6.90
2023-04-07T01:12:28.442Z,6.90
2023-04-07T01:14:33.568Z,6.90
2023-04-07T01:16:41.302Z,6.90
2023-04-07T01:18:46.622Z,6.90
2023-04-07T01:20:50.497Z,6.90
2023-04-07T01:22:54.909Z,6.90
2023-04-07T01:25:22.700Z,6.90
2023-04-07T01:27:27.861Z,6.90
2023-04-07T01:29:34.040Z,6.90
2023-04-07T01:31:38.340Z,7.00
2023-04-07T01:33:42.854Z,7.00
2023-04-07T01:35:46.758Z,7.00
2023-04-07T01:37:50.130Z,7.00
2023-04-07T01:39:53.210Z,7.00
2023-04-07T01:41:56.938Z,7.00
2023-04-07T01:44:01.608Z,7.00
2023-04-07T01:46:04.892Z,7.00
2023-04-07T01:48:08.450Z,7.00
2023-04-07T01:50:12.157Z,7.00
2023-04-07T01:52:15.348Z,7.00
2023-04-07T01:54:18.733Z,7.00
2023-04-07T01:56:21.489Z,7.00
2023-04-07T01:58:27.588Z,7.00
2023-04-07T02:00:32.549Z,7.00
2023-04-07T02:03:05.047Z,7.00
2023-04-07T02:05:29.663Z,7.00
2023-04-07T02:07:54.230Z,7.00
2023-04-07T02:10:13.809Z,6.90
2023-04-07T02:12:42.619Z,7.00
2023-04-07T02:15:05.654Z,7.00
2023-04-07T02:17:31.381Z,7.00
2023-04-07T02:19:56.689Z,7.00
2023-04-07T02:22:32.421Z,7.00
2023-04-07T02:24:55.589Z,7.00
2023-04-07T02:27:17.141Z,7.00
2023-04-07T02:29:41.344Z,7.00
2023-04-07T02:32:00.161Z,7.00
2023-04-07T02:34:26.773Z,7.00
2023-04-07T02:36:47.863Z,7.00
2023-04-07T02:39:09.303Z,7.00
2023-04-07T02:41:30.809Z,6.90
2023-04-07T02:43:58.431Z,6.90
2023-04-07T02:46:26.826Z,6.90
2023-04-07T02:48:50.631Z,7.00
2023-04-07T02:51:10.200Z,6.90
2023-04-07T02:53:35.055Z,6.90
2023-04-07T02:55:59.200Z,6.90
2023-04-07T02:58:19.871Z,6.90
2023-04-07T03:00:23.975Z,6.90
2023-04-07T03:02:28.686Z,6.90
2023-04-07T03:04:31.876Z,6.90
2023-04-07T03:06:35.194Z,6.90
2023-04-07T03:08:39.874Z,6.90
2023-04-07T03:10:43.716Z,6.90
2023-04-07T03:12:46.908Z,6.90
2023-04-07T03:14:51.032Z,6.90
2023-04-07T03:16:53.950Z,6.90
2023-04-07T03:18:57.694Z,6.90
2023-04-07T03:21:01.822Z,6.90
2023-04-07T03:23:04.460Z,6.90
2023-04-07T03:25:08.582Z,6.90
2023-04-07T03:27:12.527Z,6.90
2023-04-07T03:29:17.172Z,6.90
2023-04-07T03:31:20.132Z,6.90
2023-04-07T03:33:24.433Z,6.90
2023-04-07T03:35:29.011Z,6.90
2023-04-07T03:37:31.911Z,6.90
2023-04-07T03:39:37.458Z,6.90
2023-04-07T03:41:43.411Z,6.90
2023-04-07T03:43:46.296Z,6.90
2023-04-07T03:45:50.648Z,6.90
2023-04-07T03:47:55.293Z,6.90
2023-04-07T03:49:58.590Z,6.90
2023-04-07T03:52:01.964Z,6.90
2023-04-07T03:54:05.701Z,6.90
2023-04-07T03:56:12.362Z,6.90
2023-04-07T03:58:16.942Z,6.90
2023-04-07T04:00:21.593Z,6.90
2023-04-07T04:02:26.285Z,6.90
2023-04-07T04:04:29.209Z,6.90
2023-04-07T04:06:32.073Z,6.90
2023-04-07T04:08:37.214Z,6.90
2023-04-07T04:10:41.850Z,6.90
2023-04-07T04:12:45.197Z,6.90
2023-04-07T04:14:48.552Z,6.90
2023-04-07T04:23:05.756Z,7.10
2023-04-07T04:25:16.328Z,7.50
2023-04-07T04:27:21.043Z,6.40
2023-04-07T04:29:25.771Z,7.30
2023-04-07T04:31:29.808Z,7.10
2023-04-07T04:33:38.136Z,5.00
2023-04-07T04:35:43.825Z,7.70
2023-04-07T04:37:48.427Z,7.40
2023-04-07T04:39:52.204Z,7.00
2023-04-07T04:41:56.868Z,6.90
2023-04-07T04:44:01.434Z,6.80
2023-04-07T04:46:06.268Z,6.90
2023-04-07T04:48:11.055Z,6.90
2023-04-07T04:50:15.213Z,6.90
2023-04-07T04:52:19.472Z,6.80
2023-04-07T04:54:23.085Z,6.90
2023-04-07T04:56:25.976Z,6.80
2023-04-07T04:58:29.895Z,6.90
2023-04-07T05:00:33.106Z,6.80
2023-04-07T05:02:38.021Z,6.80
2023-04-07T05:04:42.359Z,6.80
2023-04-07T05:06:47.792Z,6.80
2023-04-07T05:08:51.509Z,6.80
2023-04-07T05:10:56.107Z,6.80
2023-04-07T05:12:59.871Z,6.80
2023-04-07T05:15:02.853Z,6.80
2023-04-07T05:17:05.902Z,6.80
2023-04-07T05:19:09.715Z,6.80
2023-04-07T05:21:13.900Z,6.80
2023-04-07T05:23:16.732Z,6.90
2023-04-07T05:25:21.240Z,6.90
2023-04-07T05:27:24.563Z,6.90
2023-04-07T05:29:29.184Z,6.80
2023-04-07T05:31:32.955Z,6.80
2023-04-07T05:33:37.199Z,6.80
2023-04-07T05:35:41.548Z,6.80
2023-04-07T05:37:45.707Z,6.90
2023-04-07T05:39:48.398Z,6.90
2023-04-07T05:41:52.160Z,6.90
2023-04-07T05:43:55.402Z,6.90
2023-04-07T05:45:58.698Z,6.90
2023-04-07T05:48:02.877Z,6.90
2023-04-07T05:50:08.530Z,6.90
2023-04-07T05:52:15.121Z,6.90
2023-04-07T05:54:24.712Z,7.00
2023-04-07T05:56:28.814Z,7.00
2023-04-07T05:58:32.309Z,6.90
2023-04-07T06:00:36.132Z,7.00
2023-04-07T06:02:41.568Z,7.00
2023-04-07T06:04:47.070Z,7.00
2023-04-07T06:06:54.394Z,7.00
2023-04-07T06:08:57.374Z,7.10
2023-04-07T06:11:01.514Z,7.10
2023-04-07T06:13:05.770Z,7.10
2023-04-07T06:15:10.215Z,7.10
2023-04-07T06:17:13.902Z,7.10
2023-04-07T06:19:16.892Z,7.10
2023-04-07T06:21:19.591Z,7.20
2023-04-07T06:23:22.266Z,7.20
2023-04-07T06:25:25.152Z,7.20
2023-04-07T06:27:29.302Z,7.20
2023-04-07T06:29:33.898Z,7.20
2023-04-07T06:31:37.392Z,7.20
2023-04-07T06:33:40.118Z,7.20
2023-04-07T06:35:43.019Z,7.20
2023-04-07T06:37:45.776Z,7.30
2023-04-07T06:39:48.662Z,7.20
2023-04-07T06:41:52.054Z,7.30
2023-04-07T06:43:57.011Z,7.30
2023-04-07T06:46:00.845Z,7.30
2023-04-07T06:48:03.860Z,7.30
2023-04-07T06:50:08.194Z,7.40
2023-04-07T06:52:10.935Z,7.40
2023-04-07T06:54:14.501Z,7.40
2023-04-07T06:56:18.417Z,7.30
2023-04-07T06:58:21.750Z,7.40
2023-04-07T07:00:25.665Z,7.40
2023-04-07T07:02:28.450Z,7.50
2023-04-07T07:04:32.223Z,7.50
2023-04-07T07:06:35.099Z,7.50
2023-04-07T07:08:57.180Z,7.60
2023-04-07T07:11:24.232Z,7.50
2023-04-07T07:13:41.340Z,7.50
2023-04-07T07:16:07.655Z,7.60
2023-04-07T07:21:10.034Z,7.50
2023-04-07T07:23:53.678Z,7.50
2023-04-07T07:26:17.416Z,9.00
2023-04-07T07:28:45.336Z,5.20
2023-04-07T07:31:03.398Z,7.10
2023-04-07T07:33:13.653Z,8.10
2023-04-07T07:35:31.781Z,7.70
2023-04-07T07:37:56.320Z,7.80
2023-04-07T07:40:16.907Z,7.90
2023-04-07T07:42:51.438Z,8.00
2023-04-07T07:45:17.214Z,8.00
2023-04-07T07:47:39.560Z,8.10
2023-04-07T07:50:03.544Z,8.10
2023-04-07T07:52:18.920Z,8.00
2023-04-07T07:54:46.685Z,8.00
2023-04-07T07:57:03.925Z,8.00
2023-04-07T07:59:31.613Z,8.10
2023-04-07T08:01:55.934Z,8.20
2023-04-07T08:04:22.464Z,8.00
2023-04-07T08:06:28.808Z,8.30
2023-04-07T08:08:32.028Z,8.30
2023-04-07T08:10:35.250Z,8.30
2023-04-07T08:12:38.225Z,8.20
2023-04-07T08:14:44.850Z,8.30
2023-04-07T08:16:48.307Z,8.40
2023-04-07T08:18:52.553Z,8.40
2023-04-07T08:23:09.930Z,8.40
2023-04-07T08:25:12.865Z,8.90
2023-04-07T08:27:15.732Z,8.70
2023-04-07T08:29:18.573Z,8.70
2023-04-07T08:31:21.848Z,8.70
2023-04-07T08:33:24.870Z,8.70
2023-04-07T08:35:27.658Z,8.60
2023-04-07T08:37:30.733Z,8.70
2023-04-07T08:39:33.632Z,8.80
2023-04-07T08:41:37.673Z,8.50
2023-04-07T08:43:43.226Z,8.50
2023-04-07T08:45:46.918Z,8.50
2023-04-07T08:47:51.457Z,8.50
2023-04-07T08:49:56.001Z,8.60
2023-04-07T08:52:00.121Z,8.70
2023-04-07T08:54:06.238Z,8.80
2023-04-07T08:56:09.371Z,8.80
2023-04-07T08:58:13.815Z,8.80
2023-04-07T09:00:17.729Z,8.90
2023-04-07T09:02:24.219Z,8.90
2023-04-07T09:04:27.851Z,8.80
2023-04-07T09:06:31.534Z,8.80
2023-04-07T09:08:34.645Z,8.90
2023-04-07T09:10:38.220Z,8.90
2023-04-07T09:12:42.300Z,8.80
2023-04-07T09:14:45.980Z,8.70
2023-04-07T09:16:49.899Z,8.70
2023-04-07T09:18:54.552Z,8.60
2023-04-07T09:20:59.674Z,8.60
2023-04-07T09:23:03.680Z,8.60
2023-04-07T09:25:14.921Z,8.60
2023-04-07T09:27:19.094Z,8.60
2023-04-07T09:29:23.033Z,8.50
2023-04-07T09:31:30.397Z,8.60
2023-04-07T09:33:35.006Z,8.60
2023-04-07T09:35:43.304Z,8.60
2023-04-07T09:37:48.175Z,8.50
2023-04-07T09:39:51.460Z,8.60
2023-04-07T09:41:54.935Z,8.60
2023-04-07T09:43:58.778Z,8.70
2023-04-07T09:46:09.388Z,8.50
2023-04-07T09:48:15.515Z,8.50
2023-04-07T09:50:20.259Z,8.60
2023-04-07T09:52:27.462Z,8.70
2023-04-07T09:54:35.453Z,8.80
2023-04-07T09:56:39.573Z,8.70
2023-04-07T09:58:44.391Z,8.80
2023-04-07T10:00:47.705Z,8.80
2023-04-07T10:02:52.028Z,8.80
2023-04-07T10:04:55.121Z,8.80
2023-04-07T10:06:58.439Z,8.90
2023-04-07T10:09:02.203Z,8.80
2023-04-07T10:11:07.074Z,8.90
2023-04-07T10:13:10.805Z,8.90
2023-04-07T10:15:15.477Z,8.80
2023-04-07T10:17:20.408Z,8.90
2023-04-07T10:19:24.549Z,8.80
2023-04-07T10:21:27.615Z,8.70
2023-04-07T10:23:34.773Z,8.80
2023-04-07T10:25:40.279Z,8.90
2023-04-07T10:27:46.605Z,8.90
2023-04-07T10:29:51.127Z,9.10
2023-04-07T10:31:53.697Z,9.00
2023-04-07T10:33:57.115Z,9.10
2023-04-07T10:36:06.815Z,9.10
2023-04-07T10:38:14.486Z,9.10
2023-04-07T10:40:30.345Z,9.20
2023-04-07T10:42:51.577Z,9.20
2023-04-07T10:44:54.222Z,9.20
2023-04-07T10:47:06.819Z,9.20
2023-04-07T10:49:11.004Z,9.10
2023-04-07T10:51:17.301Z,9.10
2023-04-07T10:53:20.054Z,9.10
2023-04-07T10:55:47.948Z,9.10
2023-04-07T10:58:09.797Z,9.10
2023-04-07T11:00:16.759Z,9.00
2023-04-07T11:02:33.888Z,8.90
2023-04-07T11:04:38.577Z,9.00
2023-04-07T11:06:47.577Z,8.90
2023-04-07T11:08:50.619Z,8.80
2023-04-07T11:10:53.272Z,8.90
2023-04-07T11:12:59.844Z,8.90
2023-04-07T11:15:17.164Z,8.90
2023-04-07T11:17:21.108Z,8.90
2023-04-07T11:19:24.734Z,8.90
2023-04-07T11:21:28.039Z,8.90
2023-04-07T11:23:30.940Z,8.90
2023-04-07T11:25:35.168Z,8.80
2023-04-07T11:27:38.120Z,8.80
2023-04-07T11:29:49.834Z,8.80
2023-04-07T11:31:53.277Z,8.90
2023-04-07T11:33:58.566Z,8.80
2023-04-07T11:36:03.170Z,8.80
2023-04-07T11:38:05.903Z,8.80
2023-04-07T11:40:09.952Z,8.80
2023-04-07T11:42:26.974Z,8.70
2023-04-07T11:44:33.124Z,8.70
2023-04-07T11:46:38.188Z,8.80
2023-04-07T11:48:44.948Z,8.80
2023-04-07T11:50:47.972Z,8.80
2023-04-07T11:52:52.119Z,8.70
2023-04-07T11:54:55.467Z,8.80
2023-04-07T11:56:58.236Z,8.80
2023-04-07T11:59:02.092Z,8.80
2023-04-07T12:01:07.878Z,8.80
2023-04-07T12:03:13.882Z,8.80
2023-04-07T12:05:18.183Z,8.80
2023-04-07T12:07:21.885Z,8.80
2023-04-07T12:09:29.370Z,8.80
2023-04-07T12:11:32.889Z,8.70
2023-04-07T12:13:35.866Z,8.80
2023-04-07T12:15:38.632Z,8.80
2023-04-07T12:17:47.546Z,8.80
2023-04-07T12:19:52.246Z,8.70
2023-04-07T12:21:55.269Z,8.80
2023-04-07T12:23:58.057Z,8.80
2023-04-07T12:26:01.786Z,8.80
2023-04-07T12:28:04.760Z,8.80
2023-04-07T12:30:11.026Z,8.80
2023-04-07T12:32:14.476Z,8.80
2023-04-07T12:34:17.947Z,8.80
2023-04-07T12:36:21.447Z,8.80
2023-04-07T12:38:42.316Z,8.80
2023-04-07T12:41:02.311Z,8.80
2023-04-07T12:43:24.132Z,8.90
2023-04-07T12:45:53.047Z,8.90
2023-04-07T12:48:16.556Z,8.90
2023-04-07T12:50:52.425Z,8.90
2023-04-07T12:53:08.351Z,9.00
2023-04-07T12:55:39.400Z,9.00
2023-04-07T12:58:03.018Z,8.90
2023-04-07T13:00:30.198Z,8.90
2023-04-07T13:02:49.231Z,9.00
2023-04-07T13:04:56.687Z,8.90
2023-04-07T13:07:19.504Z,9.00
2023-04-07T13:09:40.886Z,9.10
2023-04-07T13:12:02.742Z,9.00
2023-04-07T13:14:22.653Z,9.10
2023-04-07T13:16:51.832Z,9.00
2023-04-07T13:19:10.376Z,9.10
2023-04-07T13:21:46.151Z,9.20
2023-04-07T13:23:59.523Z,9.20
2023-04-07T13:26:23.102Z,9.20
2023-04-07T13:28:46.349Z,9.20
2023-04-07T13:31:17.489Z,9.20
2023-04-07T13:33:48.430Z,9.10
2023-04-07T13:35:52.800Z,9.10
2023-04-07T13:37:56.023Z,9.20
2023-04-07T13:39:58.997Z,9.30
2023-04-07T13:42:02.741Z,9.30
2023-04-07T13:44:05.703Z,9.30
2023-04-07T13:46:20.863Z,9.30
2023-04-07T13:48:15.427Z,9.30
2023-04-07T13:50:18.246Z,9.40
2023-04-07T13:52:21.316Z,9.30
2023-04-07T13:54:24.108Z,9.30
2023-04-07T13:56:27.088Z,9.40
2023-04-07T13:58:31.625Z,9.30
2023-04-07T14:00:35.202Z,9.30
2023-04-07T14:02:37.952Z,9.20
2023-04-07T14:04:40.764Z,9.20
2023-04-07T14:06:43.276Z,9.20
2023-04-07T14:08:45.756Z,9.20
2023-04-07T14:10:48.242Z,9.10
2023-04-07T14:12:50.746Z,9.10
2023-04-07T14:14:54.349Z,9.10
2023-04-07T14:16:57.258Z,9.20
2023-04-07T14:18:59.836Z,9.20
2023-04-07T14:21:02.735Z,9.20
2023-04-07T14:23:05.225Z,9.20
2023-04-07T14:25:07.765Z,9.30
2023-04-07T14:27:10.489Z,9.30
2023-04-07T14:29:13.176Z,9.40
2023-04-07T14:31:16.016Z,9.40
2023-04-07T14:33:18.577Z,9.40
2023-04-07T14:35:21.132Z,9.50
2023-04-07T14:37:25.439Z,9.60
2023-04-07T14:39:28.545Z,9.60
2023-04-07T14:41:31.442Z,9.60
2023-04-07T14:43:35.098Z,9.60
2023-04-07T14:45:38.311Z,9.70
2023-04-07T14:47:40.816Z,9.70
2023-04-07T14:49:43.323Z,9.70
2023-04-07T14:51:45.799Z,9.80
2023-04-07T14:53:51.002Z,9.80
2023-04-07T14:55:53.489Z,9.90
2023-04-07T14:57:56.003Z,10.00
2023-04-07T14:59:58.633Z,9.90
2023-04-07T15:02:01.193Z,9.70
2023-04-07T15:04:03.808Z,9.60
2023-04-07T15:06:09.886Z,9.60
2023-04-07T15:10:27.820Z,9.80
2023-04-07T15:12:31.048Z,9.80
2023-04-07T15:14:33.502Z,9.70
2023-04-07T15:16:36.056Z,9.80
2023-04-07T15:18:40.509Z,9.80
2023-04-07T15:20:45.674Z,9.90
2023-04-07T15:23:05.452Z,9.90
2023-04-07T15:25:18.747Z,10.00
2023-04-07T15:27:21.450Z,9.90
2023-04-07T15:29:23.936Z,9.90
2023-04-07T15:31:27.921Z,9.80
2023-04-07T15:33:30.522Z,9.90
2023-04-07T15:35:33.109Z,9.90
2023-04-07T15:37:35.695Z,9.90
2023-04-07T15:39:38.175Z,10.00
2023-04-07T15:41:40.876Z,10.20
2023-04-07T15:43:43.353Z,10.40
2023-04-07T15:45:45.963Z,10.50
2023-04-07T15:47:48.493Z,10.60
2023-04-07T15:49:51.043Z,10.70
2023-04-07T15:51:53.529Z,10.70
2023-04-07T15:53:56.069Z,10.90
2023-04-07T15:55:58.537Z,11.00
2023-04-07T15:58:01.281Z,10.90
2023-04-07T16:00:04.937Z,10.70
2023-04-07T16:02:09.076Z,10.80
2023-04-07T16:04:11.768Z,10.50
2023-04-07T16:06:14.340Z,10.30
2023-04-07T16:08:16.868Z,10.50
2023-04-07T16:10:19.545Z,10.50
2023-04-07T16:12:22.200Z,10.50
2023-04-07T16:14:27.215Z,10.50
2023-04-07T16:16:30.840Z,10.50
2023-04-07T16:18:33.428Z,10.40
2023-04-07T16:20:36.140Z,10.40
2023-04-07T16:22:38.623Z,10.40
2023-04-07T16:24:41.091Z,10.50
2023-04-07T16:28:59.736Z,10.50
2023-04-07T16:31:02.394Z,10.50
2023-04-07T16:33:05.013Z,10.50
2023-04-07T16:35:14.442Z,10.50
2023-04-07T16:37:17.045Z,10.30
2023-04-07T16:39:19.725Z,10.10
2023-04-07T16:41:22.240Z,10.10
2023-04-07T16:43:24.767Z,10.20
2023-04-07T16:45:27.260Z,10.10
2023-04-07T16:47:30.206Z,10.20
2023-04-07T16:49:32.729Z,10.10
2023-04-07T16:51:35.211Z,10.00
2023-04-07T16:53:37.835Z,10.10
2023-04-07T16:55:40.286Z,10.10
2023-04-07T16:57:42.809Z,10.30
2023-04-07T16:59:45.772Z,10.20
2023-04-07T17:01:48.347Z,10.20
2023-04-07T17:03:51.979Z,10.10
2023-04-07T17:05:54.883Z,10.10
2023-04-07T17:07:57.496Z,10.00
2023-04-07T17:10:00.209Z,9.90
2023-04-07T17:12:03.361Z,10.00
2023-04-07T17:14:05.843Z,10.00
2023-04-07T17:16:10.494Z,10.00
2023-04-07T17:18:13.167Z,10.00
2023-04-07T17:20:17.032Z,10.00
2023-04-07T17:22:19.505Z,9.90
2023-04-07T17:24:22.287Z,9.90
2023-04-07T17:26:25.841Z,9.90
2023-04-07T17:28:29.573Z,9.90
2023-04-07T17:30:32.425Z,9.80
2023-04-07T17:32:35.354Z,9.80
2023-04-07T17:34:37.856Z,9.80
2023-04-07T17:36:40.827Z,9.80
2023-04-07T17:38:43.333Z,9.70
2023-04-07T17:40:45.835Z,9.80
2023-04-07T17:42:55.491Z,9.70
2023-04-07T17:44:58.005Z,9.80
2023-04-07T17:47:01.906Z,9.70
2023-04-07T17:49:04.717Z,9.70
2023-04-07T17:51:07.368Z,9.70
2023-04-07T17:53:10.346Z,9.70
2023-04-07T17:55:12.983Z,9.60
2023-04-07T17:57:15.531Z,9.60
2023-04-07T17:59:18.106Z,9.50
2023-04-07T18:01:20.998Z,9.50
2023-04-07T18:03:23.734Z,9.50
2023-04-07T18:05:26.498Z,9.50
2023-04-07T18:07:29.139Z,9.40
2023-04-07T18:09:34.486Z,9.40
2023-04-07T18:11:37.800Z,9.40
2023-04-07T18:13:40.511Z,9.30
2023-04-07T18:15:42.983Z,9.30
2023-04-07T18:17:46.892Z,9.30
2023-04-07T18:19:49.441Z,9.30
2023-04-07T18:21:53.310Z,9.30
2023-04-07T18:23:56.331Z,9.40
2023-04-07T18:26:00.629Z,9.30
2023-04-07T18:28:03.406Z,9.30
2023-04-07T18:30:07.934Z,9.30
2023-04-07T18:32:10.527Z,9.30
2023-04-07T18:34:13.057Z,9.20
2023-04-07T18:36:15.597Z,9.20
2023-04-07T18:38:18.133Z,9.20
2023-04-07T18:40:21.284Z,9.20
2023-04-07T18:42:23.724Z,9.20
2023-04-07T18:44:27.821Z,9.20
2023-04-07T18:46:30.595Z,9.20
2023-04-07T18:48:33.124Z,9.10
2023-04-07T18:50:35.586Z,9.10
2023-04-07T18:52:38.494Z,9.10
2023-04-07T18:54:40.949Z,9.10
2023-04-07T18:56:43.413Z,9.00
2023-04-07T18:58:46.012Z,9.00
2023-04-07T19:00:49.466Z,9.00
2023-04-07T19:02:52.097Z,9.00
2023-04-07T19:04:54.987Z,9.00
2023-04-07T19:06:57.538Z,9.00
2023-04-07T19:11:17.975Z,9.00
2023-04-07T19:13:20.691Z,8.90
2023-04-07T19:15:23.263Z,8.80
2023-04-07T19:17:25.964Z,8.90
2023-04-07T19:19:28.525Z,8.90
2023-04-07T19:21:31.064Z,8.90
2023-04-07T19:23:33.713Z,8.90
2023-04-07T19:25:36.298Z,8.90
2023-04-07T19:27:38.948Z,8.90
2023-04-07T19:29:42.057Z,8.80
2023-04-07T19:31:44.581Z,8.80
2023-04-07T19:33:48.406Z,8.80
2023-04-07T19:35:51.084Z,8.70
2023-04-07T19:37:53.633Z,8.80
2023-04-07T19:40:02.727Z,8.70
2023-04-07T19:42:00.890Z,8.70
2023-04-07T19:44:03.329Z,8.70
2023-04-07T19:46:06.519Z,8.70
2023-04-07T19:48:09.023Z,8.60
2023-04-07T19:50:11.669Z,8.60
2023-04-07T19:52:14.319Z,8.70
2023-04-07T19:54:16.828Z,8.70
2023-04-07T19:56:19.352Z,8.70
2023-04-07T19:58:22.815Z,8.70
2023-04-07T20:00:25.478Z,8.80
2023-04-07T20:02:28.437Z,8.80
2023-04-07T20:04:31.412Z,8.80
2023-04-07T20:06:35.755Z,8.80
2023-04-07T20:08:38.252Z,8.70
2023-04-07T20:10:40.883Z,8.70
2023-04-07T20:12:43.429Z,8.70
2023-04-07T20:14:45.972Z,8.60
2023-04-07T20:16:48.478Z,8.60
2023-04-07T20:18:51.714Z,8.60
2023-04-07T20:20:58.766Z,8.50
2023-04-07T20:23:01.256Z,8.50
2023-04-07T20:25:04.847Z,8.50
2023-04-07T20:27:07.312Z,8.40
2023-04-07T20:29:10.018Z,8.40
2023-04-07T20:31:12.569Z,8.40
2023-04-07T20:33:15.143Z,8.60
2023-04-07T20:35:17.856Z,8.50
2023-04-07T20:37:20.489Z,8.50
2023-04-07T20:39:23.008Z,8.50
2023-04-07T20:41:25.888Z,8.50
2023-04-07T20:43:28.405Z,8.40
2023-04-07T20:45:30.916Z,8.50
2023-04-07T20:47:35.436Z,8.40
2023-04-07T20:49:39.045Z,8.40
2023-04-07T20:51:41.534Z,8.40
2023-04-07T20:53:44.002Z,8.30
2023-04-07T20:55:48.078Z,8.30
2023-04-07T20:57:50.603Z,8.40
2023-04-07T20:59:53.334Z,8.40
2023-04-07T21:01:56.681Z,8.30
2023-04-07T21:04:01.664Z,8.30
2023-04-07T21:06:04.405Z,8.20
2023-04-07T21:08:06.941Z,8.20
2023-04-07T21:10:10.299Z,8.20
2023-04-07T21:12:13.677Z,8.10
2023-04-07T21:14:16.158Z,8.00
2023-04-07T21:16:18.725Z,8.00
2023-04-07T21:18:21.255Z,7.90
2023-04-07T21:20:23.724Z,7.90
2023-04-07T21:22:27.584Z,7.80
2023-04-07T21:24:31.352Z,7.80
2023-04-07T21:26:33.873Z,7.70
2023-04-07T21:28:36.453Z,7.60
2023-04-07T21:30:41.245Z,7.60
2023-04-07T21:32:45.504Z,7.60
2023-04-07T21:34:49.890Z,7.60
2023-04-07T21:36:52.513Z,7.50
2023-04-07T21:38:55.023Z,7.50
2023-04-07T21:40:57.540Z,7.40
2023-04-07T21:43:00.196Z,7.30
2023-04-07T21:45:02.946Z,7.30
2023-04-07T21:47:05.443Z,7.30
2023-04-07T21:49:08.108Z,7.20
2023-04-07T21:51:10.911Z,7.10
2023-04-07T21:53:13.430Z,7.10
2023-04-07T21:55:16.437Z,7.00
2023-04-07T21:57:18.953Z,6.90
2023-04-07T21:59:21.448Z,7.00
2023-04-07T22:01:24.209Z,6.90
2023-04-07T22:03:28.684Z,6.90
2023-04-07T22:05:31.320Z,6.90
2023-04-07T22:07:33.840Z,6.90
2023-04-07T22:09:37.380Z,6.80
2023-04-07T22:11:41.896Z,6.70
2023-04-07T22:13:50.131Z,6.70
2023-04-07T22:15:54.088Z,6.60
2023-04-07T22:17:57.531Z,6.50
2023-04-07T22:20:04.734Z,6.50
2023-04-07T22:22:07.861Z,6.50
2023-04-07T22:24:10.915Z,6.30
2023-04-07T22:26:13.640Z,6.30
2023-04-07T22:28:17.388Z,6.20
2023-04-07T22:30:20.303Z,6.00
2023-04-07T22:32:22.861Z,5.90
2023-04-07T22:34:25.553Z,5.60
2023-04-07T22:36:28.106Z,5.40
2023-04-07T22:38:30.749Z,5.30
2023-04-07T22:40:33.452Z,5.40
2023-04-07T22:42:36.002Z,5.40
2023-04-07T22:44:38.624Z,5.50
2023-04-07T22:46:41.298Z,5.50
2023-04-07T22:48:47.119Z,5.50
2023-04-07T22:50:50.635Z,5.60
2023-04-07T22:52:54.133Z,5.60
2023-04-07T22:54:59.399Z,5.60
2023-04-07T22:57:03.629Z,5.60
2023-04-07T22:59:06.654Z,5.60
2023-04-07T23:01:11.930Z,5.50
2023-04-07T23:03:17.532Z,5.50
2023-04-07T23:05:22.736Z,5.50
2023-04-07T23:07:28.160Z,5.40
2023-04-07T23:09:30.799Z,5.40
2023-04-07T23:11:34.935Z,5.40
2023-04-07T23:13:37.850Z,5.50
2023-04-07T23:15:40.375Z,5.50
2023-04-07T23:17:43.498Z,5.50
2023-04-07T23:19:46.927Z,5.50
2023-04-07T23:21:50.003Z,5.40
2023-04-07T23:23:56.313Z,5.30
2023-04-07T23:25:59.523Z,5.30
2023-04-07T23:28:02.584Z,5.30
2023-04-07T23:30:06.961Z,5.30
2023-04-07T23:32:09.698Z,5.20
2023-04-07T23:34:12.354Z,5.20
2023-04-07T23:36:14.952Z,5.20
2023-04-07T23:38:17.538Z,5.20
2023-04-07T23:40:20.160Z,5.10
2023-04-07T23:42:23.847Z,5.00
2023-04-07T23:44:26.342Z,5.00
2023-04-07T23:46:28.832Z,5.10
2023-04-07T23:48:31.402Z,5.10
2023-04-07T23:50:33.889Z,5.00
2023-04-07T23:52:36.363Z,5.00
2023-04-07T23:54:58.141Z,5.00
2023-04-07T23:57:04.536Z,5.00
2023-04-07T23:59:09.116Z,5.00
